sensor_id;sensor_type;location;lat;lon;timestamp;temperature;humidity
21340;DHT22;10828;47.064;15.422;2023-04-03T07:46:30;7.90;99.90
21340;DHT22;10828;47.064;15.422;2023-04-03T07:48:56;8.00;99.90
21340;DHT22;10828;47.064;15.422;2023-04-03T07:51:22;8.10;99.90
21340;DHT22;10828;47.064;15.422;2023-04-03T07:53:49;8.20;99.90
21340;DHT22;10828;47.064;15.422;2023-04-03T07:56:17;8.20;99.90
21340;DHT22;10828;47.064;15.422;2023-04-03T07:58:42;8.20;99.90
21340;DHT22;10828;47.064;15.422;2023-04-03T08:01:10;8.20;99.90
21340;DHT22;10828;47.064;15.422;2023-04-03T08:03:38;8.30;99.90
21340;DHT22;10828;47.064;15.422;2023-04-03T08:06:06;8.30;99.90
21340;DHT22;10828;47.064;15.422;2023-04-03T08:08:34;8.20;99.90
21340;DHT22;10828;47.064;15.422;2023-04-03T08:11:02;8.30;99.90
21340;DHT22;10828;47.064;15.422;2023-04-03T08:13:31;8.30;99.90
21340;DHT22;10828;47.064;15.422;2023-04-03T08:15:57;8.40;99.90
21340;DHT22;10828;47.064;15.422;2023-04-03T08:18:25;8.40;99.90
21340;DHT22;10828;47.064;15.422;2023-04-03T08:20:53;8.20;99.90
21340;DHT22;10828;47.064;15.422;2023-04-03T08:23:19;8.00;99.90
21340;DHT22;10828;47.064;15.422;2023-04-03T08:25:45;8.10;99.90
21340;DHT22;10828;47.064;15.422;2023-04-03T08:28:12;8.20;99.90
21340;DHT22;10828;47.064;15.422;2023-04-03T08:30:42;8.20;99.90
21340;DHT22;10828;47.064;15.422;2023-04-03T08:33:09;8.20;99.90
21340;DHT22;10828;47.064;15.422;2023-04-03T08:35:41;8.20;99.90
21340;DHT22;10828;47.064;15.422;2023-04-03T08:38:25;8.20;99.90
21340;DHT22;10828;47.064;15.422;2023-04-03T08:43:36;8.30;99.90
21340;DHT22;10828;47.064;15.422;2023-04-03T08:46:11;8.30;99.90
21340;DHT22;10828;47.064;15.422;2023-04-03T08:48:43;8.40;99.90
21340;DHT22;10828;47.064;15.422;2023-04-03T08:51:17;8.60;99.90
21340;DHT22;10828;47.064;15.422;2023-04-03T08:54:03;8.60;99.90
21340;DHT22;10828;47.064;15.422;2023-04-03T08:56:31;8.70;99.90
21340;DHT22;10828;47.064;15.422;2023-04-03T08:59:00;8.60;99.90
21340;DHT22;10828;47.064;15.422;2023-04-03T09:01:35;8.60;99.90
21340;DHT22;10828;47.064;15.422;2023-04-03T09:04:08;8.60;99.90
21340;DHT22;10828;47.064;15.422;2023-04-03T09:06:36;8.70;99.70
21340;DHT22;10828;47.064;15.422;2023-04-03T09:09:14;8.80;98.80
21340;DHT22;10828;47.064;15.422;2023-04-03T09:17:21;8.90;98.40
21340;DHT22;10828;47.064;15.422;2023-04-03T09:22:55;8.80;98.50
21340;DHT22;10828;47.064;15.422;2023-04-03T09:25:34;8.90;97.90
21340;DHT22;10828;47.064;15.422;2023-04-03T09:28:03;8.80;97.80
21340;DHT22;10828;47.064;15.422;2023-04-03T09:30:30;9.00;97.90
21340;DHT22;10828;47.064;15.422;2023-04-03T09:32:57;9.00;97.80
21340;DHT22;10828;47.064;15.422;2023-04-03T09:35:32;9.00;97.90
21340;DHT22;10828;47.064;15.422;2023-04-03T09:38:00;9.00;98.10
21340;DHT22;10828;47.064;15.422;2023-04-03T09:40:30;9.00;98.30
21340;DHT22;10828;47.064;15.422;2023-04-03T09:43:24;9.20;98.00
21340;DHT22;10828;47.064;15.422;2023-04-03T09:45:52;9.10;97.80
21340;DHT22;10828;47.064;15.422;2023-04-03T09:48:25;9.10;97.60
21340;DHT22;10828;47.064;15.422;2023-04-03T09:50:57;9.20;97.60
21340;DHT22;10828;47.064;15.422;2023-04-03T09:53:33;9.10;97.70
21340;DHT22;10828;47.064;15.422;2023-04-03T09:56:01;9.10;97.80
21340;DHT22;10828;47.064;15.422;2023-04-03T09:58:38;9.30;97.90
21340;DHT22;10828;47.064;15.422;2023-04-03T10:04:15;9.60;97.30
21340;DHT22;10828;47.064;15.422;2023-04-03T10:06:46;9.90;97.70
21340;DHT22;10828;47.064;15.422;2023-04-03T10:14:32;10.40;96.90
21340;DHT22;10828;47.064;15.422;2023-04-03T10:25:40;10.20;97.70
21340;DHT22;10828;47.064;15.422;2023-04-03T10:34:06;10.60;97.80
21340;DHT22;10828;47.064;15.422;2023-04-03T10:39:39;10.90;97.30
21340;DHT22;10828;47.064;15.422;2023-04-03T10:45:26;10.80;97.60
21340;DHT22;10828;47.064;15.422;2023-04-03T10:48:18;10.80;97.00
21340;DHT22;10828;47.064;15.422;2023-04-03T10:54:11;10.80;97.60
21340;DHT22;10828;47.064;15.422;2023-04-03T10:56:53;10.90;97.30
21340;DHT22;10828;47.064;15.422;2023-04-03T10:59:45;11.00;96.90
21340;DHT22;10828;47.064;15.422;2023-04-03T11:02:15;10.90;96.80
21340;DHT22;10828;47.064;15.422;2023-04-03T11:04:47;11.00;96.70
21340;DHT22;10828;47.064;15.422;2023-04-03T11:07:23;11.00;96.10
21340;DHT22;10828;47.064;15.422;2023-04-03T11:10:02;10.80;96.20
21340;DHT22;10828;47.064;15.422;2023-04-03T11:12:50;10.70;96.60
21340;DHT22;10828;47.064;15.422;2023-04-03T11:15:19;10.40;96.00
21340;DHT22;10828;47.064;15.422;2023-04-03T11:18:04;10.20;95.90
21340;DHT22;10828;47.064;15.422;2023-04-03T11:20:33;10.30;96.10
21340;DHT22;10828;47.064;15.422;2023-04-03T11:25:50;10.60;96.50
21340;DHT22;10828;47.064;15.422;2023-04-03T11:28:18;11.10;96.10
21340;DHT22;10828;47.064;15.422;2023-04-03T11:36:52;12.10;95.20
21340;DHT22;10828;47.064;15.422;2023-04-03T11:39:29;12.40;95.00
21340;DHT22;10828;47.064;15.422;2023-04-03T11:42:13;12.60;94.70
21340;DHT22;10828;47.064;15.422;2023-04-03T11:44:40;12.90;93.60
21340;DHT22;10828;47.064;15.422;2023-04-03T11:47:11;13.10;93.70
21340;DHT22;10828;47.064;15.422;2023-04-03T11:50:01;13.00;94.00
21340;DHT22;10828;47.064;15.422;2023-04-03T12:01:03;12.60;93.30
21340;DHT22;10828;47.064;15.422;2023-04-03T12:11:14;12.60;93.60
21340;DHT22;10828;47.064;15.422;2023-04-03T12:29:41;11.20;94.20
21340;DHT22;10828;47.064;15.422;2023-04-03T12:32:47;11.50;94.40
21340;DHT22;10828;47.064;15.422;2023-04-03T12:35:30;11.80;93.60
21340;DHT22;10828;47.064;15.422;2023-04-03T12:41:22;12.30;94.10
21340;DHT22;10828;47.064;15.422;2023-04-03T12:43:53;12.10;93.60
21340;DHT22;10828;47.064;15.422;2023-04-03T12:46:24;12.00;93.70
21340;DHT22;10828;47.064;15.422;2023-04-03T12:48:57;12.40;93.30
21340;DHT22;10828;47.064;15.422;2023-04-03T12:51:39;12.80;93.00
21340;DHT22;10828;47.064;15.422;2023-04-03T12:54:29;13.40;92.90
21340;DHT22;10828;47.064;15.422;2023-04-03T12:57:31;14.00;91.90
21340;DHT22;10828;47.064;15.422;2023-04-03T12:59:58;14.20;91.10
21340;DHT22;10828;47.064;15.422;2023-04-03T13:02:31;14.70;91.20
21340;DHT22;10828;47.064;15.422;2023-04-03T13:05:07;15.00;90.70
21340;DHT22;10828;47.064;15.422;2023-04-03T13:07:35;15.20;90.60
21340;DHT22;10828;47.064;15.422;2023-04-03T13:12:50;15.30;90.30
21340;DHT22;10828;47.064;15.422;2023-04-03T13:15:24;14.80;90.90
21340;DHT22;10828;47.064;15.422;2023-04-03T13:17:53;15.00;90.90
21340;DHT22;10828;47.064;15.422;2023-04-03T13:20:28;14.40;91.50
21340;DHT22;10828;47.064;15.422;2023-04-03T13:23:00;13.90;91.30
21340;DHT22;10828;47.064;15.422;2023-04-03T13:25:30;13.50;91.70
21340;DHT22;10828;47.064;15.422;2023-04-03T13:27:58;13.00;91.20
21340;DHT22;10828;47.064;15.422;2023-04-03T13:30:36;12.70;91.30
21340;DHT22;10828;47.064;15.422;2023-04-03T13:33:19;12.50;91.90
21340;DHT22;10828;47.064;15.422;2023-04-03T13:35:45;13.00;91.40
21340;DHT22;10828;47.064;15.422;2023-04-03T13:38:29;13.60;91.10
21340;DHT22;10828;47.064;15.422;2023-04-03T13:41:20;14.20;90.70
21340;DHT22;10828;47.064;15.422;2023-04-03T13:43:48;13.80;90.80
21340;DHT22;10828;47.064;15.422;2023-04-03T13:48:45;14.00;91.10
21340;DHT22;10828;47.064;15.422;2023-04-03T13:56:37;14.80;90.80
21340;DHT22;10828;47.064;15.422;2023-04-03T13:59:24;15.10;89.40
21340;DHT22;10828;47.064;15.422;2023-04-03T14:04:46;15.50;90.00
21340;DHT22;10828;47.064;15.422;2023-04-03T14:07:14;15.40;87.60
21340;DHT22;10828;47.064;15.422;2023-04-03T14:09:43;15.00;87.60
21340;DHT22;10828;47.064;15.422;2023-04-03T14:12:24;15.10;86.40
21340;DHT22;10828;47.064;15.422;2023-04-03T14:14:52;15.10;86.10
21340;DHT22;10828;47.064;15.422;2023-04-03T14:17:24;14.30;87.90
21340;DHT22;10828;47.064;15.422;2023-04-03T14:19:51;14.40;88.90
21340;DHT22;10828;47.064;15.422;2023-04-03T14:22:23;14.60;88.60
21340;DHT22;10828;47.064;15.422;2023-04-03T14:24:50;14.60;88.50
21340;DHT22;10828;47.064;15.422;2023-04-03T14:27:28;14.90;88.00
21340;DHT22;10828;47.064;15.422;2023-04-03T14:29:56;15.10;87.00
21340;DHT22;10828;47.064;15.422;2023-04-03T14:32:25;14.50;87.80
21340;DHT22;10828;47.064;15.422;2023-04-03T14:34:53;14.20;87.40
21340;DHT22;10828;47.064;15.422;2023-04-03T14:37:25;13.50;88.20
21340;DHT22;10828;47.064;15.422;2023-04-03T14:39:53;12.80;89.00
21340;DHT22;10828;47.064;15.422;2023-04-03T14:42:23;13.00;88.80
21340;DHT22;10828;47.064;15.422;2023-04-03T14:44:50;13.20;88.70
21340;DHT22;10828;47.064;15.422;2023-04-03T14:47:20;13.10;88.10
21340;DHT22;10828;47.064;15.422;2023-04-03T14:49:47;13.20;88.30
21340;DHT22;10828;47.064;15.422;2023-04-03T14:52:23;13.20;87.80
21340;DHT22;10828;47.064;15.422;2023-04-03T14:54:51;13.00;87.20
21340;DHT22;10828;47.064;15.422;2023-04-03T14:57:17;12.70;87.60
21340;DHT22;10828;47.064;15.422;2023-04-03T14:59:51;12.70;88.80
21340;DHT22;10828;47.064;15.422;2023-04-03T15:02:34;12.30;88.60
21340;DHT22;10828;47.064;15.422;2023-04-03T15:05:04;12.30;88.80
21340;DHT22;10828;47.064;15.422;2023-04-03T15:07:57;12.40;88.40
21340;DHT22;10828;47.064;15.422;2023-04-03T15:10:27;12.30;87.80
21340;DHT22;10828;47.064;15.422;2023-04-03T15:12:55;12.50;87.90
21340;DHT22;10828;47.064;15.422;2023-04-03T15:15:23;12.20;88.70
21340;DHT22;10828;47.064;15.422;2023-04-03T15:17:55;11.90;89.70
21340;DHT22;10828;47.064;15.422;2023-04-03T15:20:27;11.50;88.90
21340;DHT22;10828;47.064;15.422;2023-04-03T15:23:00;11.00;90.10
21340;DHT22;10828;47.064;15.422;2023-04-03T15:25:27;10.80;90.80
21340;DHT22;10828;47.064;15.422;2023-04-03T15:27:56;10.70;90.70
21340;DHT22;10828;47.064;15.422;2023-04-03T15:30:25;10.60;90.50
21340;DHT22;10828;47.064;15.422;2023-04-03T15:32:50;10.70;90.70
21340;DHT22;10828;47.064;15.422;2023-04-03T15:35:17;10.60;90.80
21340;DHT22;10828;47.064;15.422;2023-04-03T15:37:46;10.60;91.00
21340;DHT22;10828;47.064;15.422;2023-04-03T15:40:19;10.70;91.10
21340;DHT22;10828;47.064;15.422;2023-04-03T15:42:49;10.60;90.90
21340;DHT22;10828;47.064;15.422;2023-04-03T15:45:15;10.50;90.90
21340;DHT22;10828;47.064;15.422;2023-04-03T15:47:42;10.20;91.10
21340;DHT22;10828;47.064;15.422;2023-04-03T15:50:14;10.00;91.20
21340;DHT22;10828;47.064;15.422;2023-04-03T15:52:42;10.10;91.50
21340;DHT22;10828;47.064;15.422;2023-04-03T15:55:09;10.20;91.30
21340;DHT22;10828;47.064;15.422;2023-04-03T15:57:36;10.10;91.30
21340;DHT22;10828;47.064;15.422;2023-04-03T16:00:05;9.80;91.60
21340;DHT22;10828;47.064;15.422;2023-04-03T16:02:34;9.70;92.00
21340;DHT22;10828;47.064;15.422;2023-04-03T16:05:04;9.80;92.00
21340;DHT22;10828;47.064;15.422;2023-04-03T16:07:31;9.70;91.90
21340;DHT22;10828;47.064;15.422;2023-04-03T16:10:07;9.60;92.10
21340;DHT22;10828;47.064;15.422;2023-04-03T16:12:35;9.50;92.10
21340;DHT22;10828;47.064;15.422;2023-04-03T16:15:04;9.50;91.90
21340;DHT22;10828;47.064;15.422;2023-04-03T16:17:31;9.50;92.20
21340;DHT22;10828;47.064;15.422;2023-04-03T16:19:58;9.60;92.80
21340;DHT22;10828;47.064;15.422;2023-04-03T16:22:27;9.70;92.10
21340;DHT22;10828;47.064;15.422;2023-04-03T16:24:54;9.90;92.20
21340;DHT22;10828;47.064;15.422;2023-04-03T16:27:21;10.00;91.90
21340;DHT22;10828;47.064;15.422;2023-04-03T16:29:48;10.00;92.30
21340;DHT22;10828;47.064;15.422;2023-04-03T16:32:15;9.90;91.90
21340;DHT22;10828;47.064;15.422;2023-04-03T16:34:43;9.90;91.90
21340;DHT22;10828;47.064;15.422;2023-04-03T16:37:09;9.80;91.70
21340;DHT22;10828;47.064;15.422;2023-04-03T16:39:35;9.50;91.70
21340;DHT22;10828;47.064;15.422;2023-04-03T16:42:02;9.50;92.20
21340;DHT22;10828;47.064;15.422;2023-04-03T16:44:28;9.50;92.00
21340;DHT22;10828;47.064;15.422;2023-04-03T16:46:55;9.50;92.30
21340;DHT22;10828;47.064;15.422;2023-04-03T16:49:22;9.50;92.20
21340;DHT22;10828;47.064;15.422;2023-04-03T16:51:50;9.30;92.30
21340;DHT22;10828;47.064;15.422;2023-04-03T16:54:18;9.40;92.50
21340;DHT22;10828;47.064;15.422;2023-04-03T16:56:44;9.30;91.60
21340;DHT22;10828;47.064;15.422;2023-04-03T16:59:11;9.00;92.20
21340;DHT22;10828;47.064;15.422;2023-04-03T17:01:38;8.80;91.60
21340;DHT22;10828;47.064;15.422;2023-04-03T17:04:12;8.60;91.30
21340;DHT22;10828;47.064;15.422;2023-04-03T17:06:41;8.40;91.40
21340;DHT22;10828;47.064;15.422;2023-04-03T17:09:10;8.20;91.90
21340;DHT22;10828;47.064;15.422;2023-04-03T17:11:36;8.10;91.50
21340;DHT22;10828;47.064;15.422;2023-04-03T17:14:04;7.90;91.70
21340;DHT22;10828;47.064;15.422;2023-04-03T17:16:34;8.00;92.00
21340;DHT22;10828;47.064;15.422;2023-04-03T17:19:02;8.10;91.20
21340;DHT22;10828;47.064;15.422;2023-04-03T17:21:31;8.10;91.20
21340;DHT22;10828;47.064;15.422;2023-04-03T17:24:02;8.20;91.10
21340;DHT22;10828;47.064;15.422;2023-04-03T17:26:35;8.00;91.00
21340;DHT22;10828;47.064;15.422;2023-04-03T17:29:05;7.80;91.30
21340;DHT22;10828;47.064;15.422;2023-04-03T17:31:31;7.80;91.40
21340;DHT22;10828;47.064;15.422;2023-04-03T17:33:59;7.60;91.20
21340;DHT22;10828;47.064;15.422;2023-04-03T17:36:30;7.50;91.50
21340;DHT22;10828;47.064;15.422;2023-04-03T17:38:58;7.40;91.50
21340;DHT22;10828;47.064;15.422;2023-04-03T17:41:25;7.20;91.90
21340;DHT22;10828;47.064;15.422;2023-04-03T17:43:53;7.20;91.90
21340;DHT22;10828;47.064;15.422;2023-04-03T17:46:29;7.20;92.00
21340;DHT22;10828;47.064;15.422;2023-04-03T17:48:58;7.20;91.90
21340;DHT22;10828;47.064;15.422;2023-04-03T17:51:26;7.10;92.00
21340;DHT22;10828;47.064;15.422;2023-04-03T17:53:59;7.00;92.10
21340;DHT22;10828;47.064;15.422;2023-04-03T17:56:27;6.90;92.10
21340;DHT22;10828;47.064;15.422;2023-04-03T17:59:04;6.80;92.30
21340;DHT22;10828;47.064;15.422;2023-04-03T18:01:32;6.90;92.60
21340;DHT22;10828;47.064;15.422;2023-04-03T18:04:03;7.00;92.20
21340;DHT22;10828;47.064;15.422;2023-04-03T18:06:39;7.00;92.40
21340;DHT22;10828;47.064;15.422;2023-04-03T18:09:10;7.00;92.00
21340;DHT22;10828;47.064;15.422;2023-04-03T18:11:37;6.90;92.30
21340;DHT22;10828;47.064;15.422;2023-04-03T18:14:04;6.80;92.00
21340;DHT22;10828;47.064;15.422;2023-04-03T18:16:32;6.70;92.00
21340;DHT22;10828;47.064;15.422;2023-04-03T18:18:59;6.70;92.50
21340;DHT22;10828;47.064;15.422;2023-04-03T18:21:25;6.80;91.90
21340;DHT22;10828;47.064;15.422;2023-04-03T18:23:53;6.70;91.80
21340;DHT22;10828;47.064;15.422;2023-04-03T18:26:21;6.50;92.10
21340;DHT22;10828;47.064;15.422;2023-04-03T18:28:54;6.50;92.20
21340;DHT22;10828;47.064;15.422;2023-04-03T18:31:22;6.50;92.20
21340;DHT22;10828;47.064;15.422;2023-04-03T18:33:50;6.50;92.00
21340;DHT22;10828;47.064;15.422;2023-04-03T18:36:19;6.60;92.10
21340;DHT22;10828;47.064;15.422;2023-04-03T18:38:49;6.70;91.60
21340;DHT22;10828;47.064;15.422;2023-04-03T18:41:16;6.60;91.60
21340;DHT22;10828;47.064;15.422;2023-04-03T18:43:50;6.50;92.10
21340;DHT22;10828;47.064;15.422;2023-04-03T18:46:16;6.70;91.70
21340;DHT22;10828;47.064;15.422;2023-04-03T18:48:42;6.70;91.70
21340;DHT22;10828;47.064;15.422;2023-04-03T18:51:11;6.60;91.80
21340;DHT22;10828;47.064;15.422;2023-04-03T18:53:38;6.50;91.70
21340;DHT22;10828;47.064;15.422;2023-04-03T18:56:05;6.30;91.60
21340;DHT22;10828;47.064;15.422;2023-04-03T18:58:32;6.00;91.90
21340;DHT22;10828;47.064;15.422;2023-04-03T19:00:59;6.10;92.30
21340;DHT22;10828;47.064;15.422;2023-04-03T19:03:34;6.10;92.00
21340;DHT22;10828;47.064;15.422;2023-04-03T19:06:04;6.00;92.10
21340;DHT22;10828;47.064;15.422;2023-04-03T19:08:32;5.90;92.10
21340;DHT22;10828;47.064;15.422;2023-04-03T19:11:02;5.70;92.50
21340;DHT22;10828;47.064;15.422;2023-04-03T19:13:40;5.80;92.40
21340;DHT22;10828;47.064;15.422;2023-04-03T19:16:10;5.80;92.30
21340;DHT22;10828;47.064;15.422;2023-04-03T19:18:37;5.70;92.40
21340;DHT22;10828;47.064;15.422;2023-04-03T19:21:06;5.80;92.50
21340;DHT22;10828;47.064;15.422;2023-04-03T19:23:33;5.90;92.40
21340;DHT22;10828;47.064;15.422;2023-04-03T19:26:08;5.80;92.30
21340;DHT22;10828;47.064;15.422;2023-04-03T19:28:34;5.70;92.60
21340;DHT22;10828;47.064;15.422;2023-04-03T19:31:16;5.70;92.50
21340;DHT22;10828;47.064;15.422;2023-04-03T19:33:44;5.60;92.60
21340;DHT22;10828;47.064;15.422;2023-04-03T19:36:11;5.60;92.60
21340;DHT22;10828;47.064;15.422;2023-04-03T19:38:39;5.50;92.70
21340;DHT22;10828;47.064;15.422;2023-04-03T19:41:14;5.40;92.60
21340;DHT22;10828;47.064;15.422;2023-04-03T19:43:42;5.40;92.80
21340;DHT22;10828;47.064;15.422;2023-04-03T19:46:17;5.50;92.60
21340;DHT22;10828;47.064;15.422;2023-04-03T19:48:44;5.50;92.70
21340;DHT22;10828;47.064;15.422;2023-04-03T19:51:13;5.50;92.60
21340;DHT22;10828;47.064;15.422;2023-04-03T19:53:40;5.50;92.60
21340;DHT22;10828;47.064;15.422;2023-04-03T19:56:08;5.50;92.70
21340;DHT22;10828;47.064;15.422;2023-04-03T19:58:35;5.40;92.60
21340;DHT22;10828;47.064;15.422;2023-04-03T20:01:04;5.30;92.70
21340;DHT22;10828;47.064;15.422;2023-04-03T20:03:32;5.20;92.70
21340;DHT22;10828;47.064;15.422;2023-04-03T20:05:59;5.20;93.10
21340;DHT22;10828;47.064;15.422;2023-04-03T20:08:27;5.20;93.00
21340;DHT22;10828;47.064;15.422;2023-04-03T20:10:55;5.20;93.00
21340;DHT22;10828;47.064;15.422;2023-04-03T20:13:23;5.20;93.00
21340;DHT22;10828;47.064;15.422;2023-04-03T20:15:51;5.30;92.60
21340;DHT22;10828;47.064;15.422;2023-04-03T20:18:19;5.40;92.20
21340;DHT22;10828;47.064;15.422;2023-04-03T20:21:00;5.40;92.40
21340;DHT22;10828;47.064;15.422;2023-04-03T20:23:28;5.60;92.10
21340;DHT22;10828;47.064;15.422;2023-04-03T20:25:58;5.50;91.80
21340;DHT22;10828;47.064;15.422;2023-04-03T20:28:26;5.50;92.00
21340;DHT22;10828;47.064;15.422;2023-04-03T20:30:54;5.50;92.10
21340;DHT22;10828;47.064;15.422;2023-04-03T20:33:22;5.50;91.70
21340;DHT22;10828;47.064;15.422;2023-04-03T20:35:49;5.50;91.60
21340;DHT22;10828;47.064;15.422;2023-04-03T20:38:18;5.50;91.40
21340;DHT22;10828;47.064;15.422;2023-04-03T20:40:55;5.30;91.70
21340;DHT22;10828;47.064;15.422;2023-04-03T20:43:26;5.20;92.00
21340;DHT22;10828;47.064;15.422;2023-04-03T20:45:55;5.20;91.80
21340;DHT22;10828;47.064;15.422;2023-04-03T20:48:21;5.20;91.80
21340;DHT22;10828;47.064;15.422;2023-04-03T20:50:49;5.10;91.50
21340;DHT22;10828;47.064;15.422;2023-04-03T20:53:18;5.00;91.40
21340;DHT22;10828;47.064;15.422;2023-04-03T20:55:59;5.00;91.50
21340;DHT22;10828;47.064;15.422;2023-04-03T20:58:28;5.20;91.60
21340;DHT22;10828;47.064;15.422;2023-04-03T21:00:58;5.20;91.50
21340;DHT22;10828;47.064;15.422;2023-04-03T21:03:27;5.00;91.40
21340;DHT22;10828;47.064;15.422;2023-04-03T21:20:27;4.70;92.10
21340;DHT22;10828;47.064;15.422;2023-04-03T21:22:53;4.70;92.40
21340;DHT22;10828;47.064;15.422;2023-04-03T21:25:19;4.80;92.10
21340;DHT22;10828;47.064;15.422;2023-04-03T21:27:45;4.80;92.20
21340;DHT22;10828;47.064;15.422;2023-04-03T21:30:14;4.80;92.10
21340;DHT22;10828;47.064;15.422;2023-04-03T21:32:42;4.70;92.20
21340;DHT22;10828;47.064;15.422;2023-04-03T21:35:10;4.60;92.40
21340;DHT22;10828;47.064;15.422;2023-04-03T21:37:37;4.50;92.50
21340;DHT22;10828;47.064;15.422;2023-04-03T21:40:04;4.40;92.50
21340;DHT22;10828;47.064;15.422;2023-04-03T21:42:38;4.40;92.60
21340;DHT22;10828;47.064;15.422;2023-04-03T21:45:04;4.40;92.90
21340;DHT22;10828;47.064;15.422;2023-04-03T21:47:30;4.40;92.80
21340;DHT22;10828;47.064;15.422;2023-04-03T21:49:58;4.50;92.90
21340;DHT22;10828;47.064;15.422;2023-04-03T21:52:25;4.50;93.10
21340;DHT22;10828;47.064;15.422;2023-04-03T21:54:53;4.60;93.30
21340;DHT22;10828;47.064;15.422;2023-04-03T21:57:19;4.70;93.10
21340;DHT22;10828;47.064;15.422;2023-04-03T21:59:45;4.80;93.20
21340;DHT22;10828;47.064;15.422;2023-04-03T22:02:11;4.90;93.10
21340;DHT22;10828;47.064;15.422;2023-04-03T22:04:38;4.80;93.10
21340;DHT22;10828;47.064;15.422;2023-04-03T22:07:05;4.70;93.20
21340;DHT22;10828;47.064;15.422;2023-04-03T22:09:32;4.60;93.40
21340;DHT22;10828;47.064;15.422;2023-04-03T22:11:58;4.70;93.60
21340;DHT22;10828;47.064;15.422;2023-04-03T22:14:25;4.70;93.40
21340;DHT22;10828;47.064;15.422;2023-04-03T22:16:54;4.70;93.60
21340;DHT22;10828;47.064;15.422;2023-04-03T22:19:21;4.70;93.50
21340;DHT22;10828;47.064;15.422;2023-04-03T22:21:48;4.70;93.70
21340;DHT22;10828;47.064;15.422;2023-04-03T22:24:14;4.70;93.90
21340;DHT22;10828;47.064;15.422;2023-04-03T22:26:43;4.70;94.00
21340;DHT22;10828;47.064;15.422;2023-04-03T22:29:10;4.70;94.60
21340;DHT22;10828;47.064;15.422;2023-04-03T22:31:44;4.80;94.30
21340;DHT22;10828;47.064;15.422;2023-04-03T22:34:12;4.80;94.00
21340;DHT22;10828;47.064;15.422;2023-04-03T22:36:41;4.80;94.10
21340;DHT22;10828;47.064;15.422;2023-04-03T22:39:07;4.90;94.30
21340;DHT22;10828;47.064;15.422;2023-04-03T22:41:36;4.90;94.10
21340;DHT22;10828;47.064;15.422;2023-04-03T22:44:03;4.90;93.90
21340;DHT22;10828;47.064;15.422;2023-04-03T22:46:34;5.00;93.80
21340;DHT22;10828;47.064;15.422;2023-04-03T22:49:01;5.10;93.50
21340;DHT22;10828;47.064;15.422;2023-04-03T22:51:31;5.00;93.80
21340;DHT22;10828;47.064;15.422;2023-04-03T22:53:58;4.90;93.10
21340;DHT22;10828;47.064;15.422;2023-04-03T22:56:25;4.80;93.40
21340;DHT22;10828;47.064;15.422;2023-04-03T22:58:54;4.80;93.60
21340;DHT22;10828;47.064;15.422;2023-04-03T23:01:21;4.60;93.70
21340;DHT22;10828;47.064;15.422;2023-04-03T23:03:48;4.70;93.60
21340;DHT22;10828;47.064;15.422;2023-04-03T23:06:15;4.70;93.40
21340;DHT22;10828;47.064;15.422;2023-04-03T23:08:42;4.70;93.00
21340;DHT22;10828;47.064;15.422;2023-04-03T23:11:08;4.70;92.90
21340;DHT22;10828;47.064;15.422;2023-04-03T23:13:38;4.80;92.70
21340;DHT22;10828;47.064;15.422;2023-04-03T23:16:04;4.70;92.50
21340;DHT22;10828;47.064;15.422;2023-04-03T23:18:32;4.60;92.70
21340;DHT22;10828;47.064;15.422;2023-04-03T23:21:01;4.60;92.70
21340;DHT22;10828;47.064;15.422;2023-04-03T23:23:28;4.80;92.70
21340;DHT22;10828;47.064;15.422;2023-04-03T23:25:54;4.60;92.20
21340;DHT22;10828;47.064;15.422;2023-04-03T23:28:24;4.50;92.70
21340;DHT22;10828;47.064;15.422;2023-04-03T23:31:03;4.50;93.40
21340;DHT22;10828;47.064;15.422;2023-04-03T23:33:32;4.50;92.60
21340;DHT22;10828;47.064;15.422;2023-04-03T23:36:05;4.40;92.70
21340;DHT22;10828;47.064;15.422;2023-04-03T23:38:35;4.50;93.10
21340;DHT22;10828;47.064;15.422;2023-04-03T23:41:02;4.50;92.60
21340;DHT22;10828;47.064;15.422;2023-04-03T23:43:28;4.40;92.70
21340;DHT22;10828;47.064;15.422;2023-04-03T23:45:54;4.30;92.40
21340;DHT22;10828;47.064;15.422;2023-04-03T23:48:21;4.30;92.60
21340;DHT22;10828;47.064;15.422;2023-04-03T23:50:49;4.20;92.80
21340;DHT22;10828;47.064;15.422;2023-04-03T23:53:15;4.10;92.70
21340;DHT22;10828;47.064;15.422;2023-04-03T23:55:41;4.10;92.80
21340;DHT22;10828;47.064;15.422;2023-04-03T23:58:07;3.90;92.80
